sensor_id;sensor_type;location;lat;lon;timestamp;P1;P2;P0
30713;PMS7003;17465;47.934;33.430;2024-01-11T00:01:48;44.75;37.25;26.00
30713;PMS7003;17465;47.934;33.430;2024-01-11T00:04:18;25.50;24.00;16.75
30713;PMS7003;17465;47.934;33.430;2024-01-11T00:06:49;28.00;27.75;20.75
30713;PMS7003;17465;47.934;33.430;2024-01-11T00:09:20;31.25;30.00;24.00
30713;PMS7003;17465;47.934;33.430;2024-01-11T00:11:50;29.50;27.00;19.00
30713;PMS7003;17465;47.934;33.430;2024-01-11T00:14:20;29.75;29.75;24.00
30713;PMS7003;17465;47.934;33.430;2024-01-11T00:16:50;35.00;31.25;24.75
30713;PMS7003;17465;47.934;33.430;2024-01-11T00:19:20;20.00;17.50;12.25
30713;PMS7003;17465;47.934;33.430;2024-01-11T00:21:51;25.00;23.25;14.50
30713;PMS7003;17465;47.934;33.430;2024-01-11T00:24:21;24.50;24.50;17.25
30713;PMS7003;17465;47.934;33.430;2024-01-11T00:26:51;31.50;29.25;26.75
30713;PMS7003;17465;47.934;33.430;2024-01-11T00:29:21;28.25;25.25;19.50
30713;PMS7003;17465;47.934;33.430;2024-01-11T00:31:51;31.50;28.50;22.25
30713;PMS7003;17465;47.934;33.430;2024-01-11T00:34:22;48.75;44.25;35.75
30713;PMS7003;17465;47.934;33.430;2024-01-11T00:36:52;57.75;49.00;36.50
30713;PMS7003;17465;47.934;33.430;2024-01-11T00:39:22;59.50;51.75;40.50
30713;PMS7003;17465;47.934;33.430;2024-01-11T00:41:52;47.25;44.75;36.00
30713;PMS7003;17465;47.934;33.430;2024-01-11T00:44:22;65.75;55.25;42.25
30713;PMS7003;17465;47.934;33.430;2024-01-11T00:46:53;41.50;38.25;29.75
30713;PMS7003;17465;47.934;33.430;2024-01-11T00:49:23;44.50;40.50;31.75
30713;PMS7003;17465;47.934;33.430;2024-01-11T00:51:53;46.75;44.75;35.00
30713;PMS7003;17465;47.934;33.430;2024-01-11T00:54:24;59.25;51.00;38.75
30713;PMS7003;17465;47.934;33.430;2024-01-11T00:56:54;27.00;25.75;21.00
30713;PMS7003;17465;47.934;33.430;2024-01-11T00:59:24;30.00;30.00;20.75
30713;PMS7003;17465;47.934;33.430;2024-01-11T01:01:55;51.75;47.00;36.75
30713;PMS7003;17465;47.934;33.430;2024-01-11T01:04:25;61.75;54.25;42.25
30713;PMS7003;17465;47.934;33.430;2024-01-11T01:06:55;33.25;31.25;24.25
30713;PMS7003;17465;47.934;33.430;2024-01-11T01:09:26;50.00;38.50;29.25
30713;PMS7003;17465;47.934;33.430;2024-01-11T01:11:56;24.25;23.25;15.25
30713;PMS7003;17465;47.934;33.430;2024-01-11T01:14:26;25.00;20.50;12.00
30713;PMS7003;17465;47.934;33.430;2024-01-11T01:16:56;46.25;40.25;29.25
30713;PMS7003;17465;47.934;33.430;2024-01-11T01:19:27;29.00;25.75;17.75
30713;PMS7003;17465;47.934;33.430;2024-01-11T01:21:57;27.50;27.50;20.00
30713;PMS7003;17465;47.934;33.430;2024-01-11T01:24:28;28.25;22.50;16.00
30713;PMS7003;17465;47.934;33.430;2024-01-11T01:26:58;32.75;26.25;17.75
30713;PMS7003;17465;47.934;33.430;2024-01-11T01:29:31;38.00;35.50;26.75
30713;PMS7003;17465;47.934;33.430;2024-01-11T01:32:01;23.00;22.50;13.00
30713;PMS7003;17465;47.934;33.430;2024-01-11T01:34:32;22.75;22.75;14.00
30713;PMS7003;17465;47.934;33.430;2024-01-11T01:37:02;22.00;21.75;11.50
30713;PMS7003;17465;47.934;33.430;2024-01-11T01:39:36;34.00;32.00;24.25
30713;PMS7003;17465;47.934;33.430;2024-01-11T01:42:06;22.25;22.25;16.00
30713;PMS7003;17465;47.934;33.430;2024-01-11T01:44:36;38.00;31.25;23.75
30713;PMS7003;17465;47.934;33.430;2024-01-11T01:47:07;52.25;48.00;37.75
30713;PMS7003;17465;47.934;33.430;2024-01-11T01:49:39;26.75;23.00;14.25
30713;PMS7003;17465;47.934;33.430;2024-01-11T01:52:11;13.75;13.75;10.00
30713;PMS7003;17465;47.934;33.430;2024-01-11T01:54:43;9.50;7.25;0.50
30713;PMS7003;17465;47.934;33.430;2024-01-11T01:57:14;11.50;9.50;4.50
30713;PMS7003;17465;47.934;33.430;2024-01-11T01:59:46;10.25;7.25;1.00
30713;PMS7003;17465;47.934;33.430;2024-01-11T02:02:19;4.25;4.25;0.00
30713;PMS7003;17465;47.934;33.430;2024-01-11T02:04:50;4.00;4.00;1.00
30713;PMS7003;17465;47.934;33.430;2024-01-11T02:07:21;9.00;6.75;1.00
30713;PMS7003;17465;47.934;33.430;2024-01-11T02:09:51;4.00;4.00;0.75
30713;PMS7003;17465;47.934;33.430;2024-01-11T02:12:22;9.50;7.75;4.25
30713;PMS7003;17465;47.934;33.430;2024-01-11T02:14:55;7.25;5.00;1.00
30713;PMS7003;17465;47.934;33.430;2024-01-11T02:17:25;7.50;7.50;1.75
30713;PMS7003;17465;47.934;33.430;2024-01-11T02:19:56;5.50;4.00;1.00
30713;PMS7003;17465;47.934;33.430;2024-01-11T02:22:29;8.50;8.00;1.75
30713;PMS7003;17465;47.934;33.430;2024-01-11T02:25:17;8.00;8.00;1.25
30713;PMS7003;17465;47.934;33.430;2024-01-11T02:27:47;10.50;5.00;1.00
30713;PMS7003;17465;47.934;33.430;2024-01-11T02:30:18;6.50;6.50;2.00
30713;PMS7003;17465;47.934;33.430;2024-01-11T02:32:49;7.00;7.00;1.00
30713;PMS7003;17465;47.934;33.430;2024-01-11T02:35:21;5.00;5.00;0.25
30713;PMS7003;17465;47.934;33.430;2024-01-11T02:37:53;9.00;9.00;4.00
30713;PMS7003;17465;47.934;33.430;2024-01-11T02:40:24;6.50;5.50;1.00
30713;PMS7003;17465;47.934;33.430;2024-01-11T02:42:56;6.00;6.00;1.00
30713;PMS7003;17465;47.934;33.430;2024-01-11T02:45:26;11.50;10.50;4.00
30713;PMS7003;17465;47.934;33.430;2024-01-11T02:47:56;10.50;10.25;4.25
30713;PMS7003;17465;47.934;33.430;2024-01-11T02:50:27;13.75;12.00;2.00
30713;PMS7003;17465;47.934;33.430;2024-01-11T02:52:57;11.50;8.25;2.50
30713;PMS7003;17465;47.934;33.430;2024-01-11T02:55:27;19.50;18.00;13.75
30713;PMS7003;17465;47.934;33.430;2024-01-11T02:57:57;25.50;20.50;15.00
30713;PMS7003;17465;47.934;33.430;2024-01-11T03:00:28;30.50;27.75;23.75
30713;PMS7003;17465;47.934;33.430;2024-01-11T03:02:59;10.25;9.50;1.75
30713;PMS7003;17465;47.934;33.430;2024-01-11T03:05:29;12.50;11.75;3.00
30713;PMS7003;17465;47.934;33.430;2024-01-11T03:08:06;19.00;19.00;15.25
30713;PMS7003;17465;47.934;33.430;2024-01-11T03:10:39;24.75;24.75;20.25
30713;PMS7003;17465;47.934;33.430;2024-01-11T03:13:10;24.50;24.50;16.50
30713;PMS7003;17465;47.934;33.430;2024-01-11T03:15:40;45.75;41.25;35.00
30713;PMS7003;17465;47.934;33.430;2024-01-11T03:18:11;45.25;40.00;32.25
30713;PMS7003;17465;47.934;33.430;2024-01-11T03:20:41;65.75;56.50;46.75
30713;PMS7003;17465;47.934;33.430;2024-01-11T03:23:12;67.25;58.50;51.25
30713;PMS7003;17465;47.934;33.430;2024-01-11T03:25:42;85.25;71.75;71.50
30713;PMS7003;17465;47.934;33.430;2024-01-11T03:28:12;105.75;94.00;103.25
30713;PMS7003;17465;47.934;33.430;2024-01-11T03:30:43;92.00;76.25;74.75
30713;PMS7003;17465;47.934;33.430;2024-01-11T03:33:13;110.75;101.75;100.75
30713;PMS7003;17465;47.934;33.430;2024-01-11T03:35:44;113.25;104.75;103.50
30713;PMS7003;17465;47.934;33.430;2024-01-11T03:38:15;88.50;73.00;64.00
30713;PMS7003;17465;47.934;33.430;2024-01-11T03:40:45;111.00;101.50;97.25
30713;PMS7003;17465;47.934;33.430;2024-01-11T03:43:18;110.75;102.75;98.25
30713;PMS7003;17465;47.934;33.430;2024-01-11T03:45:48;107.50;97.00;94.50
30713;PMS7003;17465;47.934;33.430;2024-01-11T03:48:19;94.00;77.50;72.00
30713;PMS7003;17465;47.934;33.430;2024-01-11T03:50:49;100.75;85.25;76.75
30713;PMS7003;17465;47.934;33.430;2024-01-11T03:53:19;101.50;85.50;79.50
30713;PMS7003;17465;47.934;33.430;2024-01-11T03:55:50;104.75;92.25;83.00
30713;PMS7003;17465;47.934;33.430;2024-01-11T03:58:20;100.50;86.75;77.25
30713;PMS7003;17465;47.934;33.430;2024-01-11T04:00:52;79.50;66.75;54.75
30713;PMS7003;17465;47.934;33.430;2024-01-11T04:03:22;101.50;85.25;86.00
30713;PMS7003;17465;47.934;33.430;2024-01-11T04:05:53;112.25;105.75;105.75
30713;PMS7003;17465;47.934;33.430;2024-01-11T04:08:23;113.50;103.75;95.25
30713;PMS7003;17465;47.934;33.430;2024-01-11T04:10:53;87.00;71.50;61.00
30713;PMS7003;17465;47.934;33.430;2024-01-11T04:13:24;72.50;61.50;48.00
30713;PMS7003;17465;47.934;33.430;2024-01-11T04:15:54;53.50;49.25;38.00
30713;PMS7003;17465;47.934;33.430;2024-01-11T04:18:24;113.25;102.75;98.00
30713;PMS7003;17465;47.934;33.430;2024-01-11T04:20:57;89.50;76.00;66.75
30713;PMS7003;17465;47.934;33.430;2024-01-11T04:23:47;80.00;68.00;57.00
30713;PMS7003;17465;47.934;33.430;2024-01-11T04:26:17;89.50;73.25;63.50
30713;PMS7003;17465;47.934;33.430;2024-01-11T04:28:48;105.25;93.00;87.50
30713;PMS7003;17465;47.934;33.430;2024-01-11T04:31:19;60.75;53.75;42.25
30713;PMS7003;17465;47.934;33.430;2024-01-11T04:33:49;58.00;52.25;41.00
30713;PMS7003;17465;47.934;33.430;2024-01-11T04:36:20;25.50;23.25;17.75
30713;PMS7003;17465;47.934;33.430;2024-01-11T04:38:50;37.25;36.50;28.50
30713;PMS7003;17465;47.934;33.430;2024-01-11T04:41:20;42.00;42.00;20.75
30713;PMS7003;17465;47.934;33.430;2024-01-11T04:43:50;29.00;28.00;19.25
30713;PMS7003;17465;47.934;33.430;2024-01-11T04:46:22;21.00;21.00;14.75
30713;PMS7003;17465;47.934;33.430;2024-01-11T04:48:56;21.00;18.50;10.75
30713;PMS7003;17465;47.934;33.430;2024-01-11T04:51:26;21.00;20.50;12.00
30713;PMS7003;17465;47.934;33.430;2024-01-11T04:53:58;34.50;30.50;18.75
30713;PMS7003;17465;47.934;33.430;2024-01-11T04:56:28;28.25;27.00;13.50
30713;PMS7003;17465;47.934;33.430;2024-01-11T04:58:59;36.50;31.25;16.50
30713;PMS7003;17465;47.934;33.430;2024-01-11T05:01:29;28.75;26.25;13.50
30713;PMS7003;17465;47.934;33.430;2024-01-11T05:03:59;28.50;25.50;13.50
30713;PMS7003;17465;47.934;33.430;2024-01-11T05:06:30;31.00;27.75;15.00
30713;PMS7003;17465;47.934;33.430;2024-01-11T05:09:00;35.75;33.75;19.25
30713;PMS7003;17465;47.934;33.430;2024-01-11T05:11:31;29.25;25.00;16.25
30713;PMS7003;17465;47.934;33.430;2024-01-11T05:14:01;32.50;27.00;17.00
30713;PMS7003;17465;47.934;33.430;2024-01-11T05:16:32;29.75;29.75;16.75
30713;PMS7003;17465;47.934;33.430;2024-01-11T05:19:02;44.00;38.00;26.50
30713;PMS7003;17465;47.934;33.430;2024-01-11T05:21:39;29.25;25.00;13.50
30713;PMS7003;17465;47.934;33.430;2024-01-11T05:24:09;22.00;20.25;10.00
30713;PMS7003;17465;47.934;33.430;2024-01-11T05:26:40;16.00;13.50;2.00
30713;PMS7003;17465;47.934;33.430;2024-01-11T05:29:11;23.75;19.75;9.50
30713;PMS7003;17465;47.934;33.430;2024-01-11T05:31:41;26.00;19.00;8.00
30713;PMS7003;17465;47.934;33.430;2024-01-11T05:34:12;26.25;20.00;10.50
30713;PMS7003;17465;47.934;33.430;2024-01-11T05:36:42;25.50;20.25;7.75
30713;PMS7003;17465;47.934;33.430;2024-01-11T05:39:13;16.50;15.00;13.00
30713;PMS7003;17465;47.934;33.430;2024-01-11T05:41:44;21.00;19.50;10.00
30713;PMS7003;17465;47.934;33.430;2024-01-11T05:44:14;33.75;31.25;14.00
30713;PMS7003;17465;47.934;33.430;2024-01-11T05:46:44;21.25;16.00;6.00
30713;PMS7003;17465;47.934;33.430;2024-01-11T05:49:15;20.00;18.50;11.00
30713;PMS7003;17465;47.934;33.430;2024-01-11T05:51:45;25.25;19.00;8.50
30713;PMS7003;17465;47.934;33.430;2024-01-11T05:54:16;20.00;19.50;10.50
30713;PMS7003;17465;47.934;33.430;2024-01-11T05:56:47;26.00;21.75;10.50
30713;PMS7003;17465;47.934;33.430;2024-01-11T05:59:18;32.00;26.25;13.00
30713;PMS7003;17465;47.934;33.430;2024-01-11T06:01:48;25.50;25.00;10.00
30713;PMS7003;17465;47.934;33.430;2024-01-11T06:04:18;30.50;25.75;13.00
30713;PMS7003;17465;47.934;33.430;2024-01-11T06:06:51;25.50;24.50;10.75
30713;PMS7003;17465;47.934;33.430;2024-01-11T06:09:22;27.75;26.00;11.00
30713;PMS7003;17465;47.934;33.430;2024-01-11T06:11:55;28.00;26.00;14.75
30713;PMS7003;17465;47.934;33.430;2024-01-11T06:14:25;34.50;30.75;16.50
30713;PMS7003;17465;47.934;33.430;2024-01-11T06:16:55;26.00;22.25;12.00
30713;PMS7003;17465;47.934;33.430;2024-01-11T06:19:26;30.25;27.00;12.25
30713;PMS7003;17465;47.934;33.430;2024-01-11T06:21:57;29.00;22.00;13.50
30713;PMS7003;17465;47.934;33.430;2024-01-11T06:24:27;38.00;35.25;16.75
30713;PMS7003;17465;47.934;33.430;2024-01-11T06:26:57;36.00;30.50;15.25
30713;PMS7003;17465;47.934;33.430;2024-01-11T06:29:28;36.25;32.25;12.25
30713;PMS7003;17465;47.934;33.430;2024-01-11T06:32:04;40.75;36.25;20.50
30713;PMS7003;17465;47.934;33.430;2024-01-11T06:34:41;43.25;36.75;17.50
30713;PMS7003;17465;47.934;33.430;2024-01-11T06:37:12;38.00;34.00;18.25
30713;PMS7003;17465;47.934;33.430;2024-01-11T06:39:42;33.25;28.50;15.25
30713;PMS7003;17465;47.934;33.430;2024-01-11T06:42:13;38.00;37.00;18.00
30713;PMS7003;17465;47.934;33.430;2024-01-11T06:44:43;25.25;22.25;15.50
30713;PMS7003;17465;47.934;33.430;2024-01-11T06:47:13;43.75;35.00;20.00
30713;PMS7003;17465;47.934;33.430;2024-01-11T06:49:44;41.00;33.00;16.00
30713;PMS7003;17465;47.934;33.430;2024-01-11T06:52:15;43.00;36.50;18.25
30713;PMS7003;17465;47.934;33.430;2024-01-11T06:54:45;40.25;35.75;20.50
30713;PMS7003;17465;47.934;33.430;2024-01-11T06:57:16;37.75;36.50;16.50
30713;PMS7003;17465;47.934;33.430;2024-01-11T06:59:46;42.50;40.00;21.75
30713;PMS7003;17465;47.934;33.430;2024-01-11T07:02:17;41.00;36.00;21.25
30713;PMS7003;17465;47.934;33.430;2024-01-11T07:04:47;48.75;45.00;22.75
30713;PMS7003;17465;47.934;33.430;2024-01-11T07:07:18;50.00;44.25;27.50
30713;PMS7003;17465;47.934;33.430;2024-01-11T07:09:48;40.25;40.00;21.00
30713;PMS7003;17465;47.934;33.430;2024-01-11T07:12:36;63.75;46.75;22.75
30713;PMS7003;17465;47.934;33.430;2024-01-11T07:22:41;47.25;41.00;19.00
30713;PMS7003;17465;47.934;33.430;2024-01-11T07:25:11;53.75;48.00;25.00
30713;PMS7003;17465;47.934;33.430;2024-01-11T07:27:42;46.00;43.25;20.00
30713;PMS7003;17465;47.934;33.430;2024-01-11T07:30:17;44.00;42.00;24.00
30713;PMS7003;17465;47.934;33.430;2024-01-11T07:32:48;46.00;40.50;20.50
30713;PMS7003;17465;47.934;33.430;2024-01-11T07:35:23;58.00;47.50;27.25
30713;PMS7003;17465;47.934;33.430;2024-01-11T07:37:56;56.50;50.25;26.50
30713;PMS7003;17465;47.934;33.430;2024-01-11T07:40:26;64.75;54.75;36.25
30713;PMS7003;17465;47.934;33.430;2024-01-11T07:42:57;65.25;50.00;32.75
30713;PMS7003;17465;47.934;33.430;2024-01-11T07:45:28;63.75;50.75;29.25
30713;PMS7003;17465;47.934;33.430;2024-01-11T07:47:58;63.00;50.75;29.75
30713;PMS7003;17465;47.934;33.430;2024-01-11T07:50:29;58.75;49.25;30.50
30713;PMS7003;17465;47.934;33.430;2024-01-11T07:53:01;63.50;53.50;34.25
30713;PMS7003;17465;47.934;33.430;2024-01-11T07:55:31;70.25;55.75;36.75
30713;PMS7003;17465;47.934;33.430;2024-01-11T07:58:01;72.00;56.75;36.25
30713;PMS7003;17465;47.934;33.430;2024-01-11T08:00:32;45.00;41.75;26.00
30713;PMS7003;17465;47.934;33.430;2024-01-11T08:03:03;53.50;45.25;22.50
30713;PMS7003;17465;47.934;33.430;2024-01-11T08:05:37;49.50;40.75;25.25
30713;PMS7003;17465;47.934;33.430;2024-01-11T08:08:08;61.50;51.00;30.00
30713;PMS7003;17465;47.934;33.430;2024-01-11T08:10:40;47.75;44.00;25.50
30713;PMS7003;17465;47.934;33.430;2024-01-11T08:13:15;68.25;51.25;29.00
30713;PMS7003;17465;47.934;33.430;2024-01-11T08:15:47;65.75;55.25;32.00
30713;PMS7003;17465;47.934;33.430;2024-01-11T08:18:19;61.75;52.00;34.00
30713;PMS7003;17465;47.934;33.430;2024-01-11T08:20:51;63.75;53.50;30.25
30713;PMS7003;17465;47.934;33.430;2024-01-11T08:23:21;57.00;50.00;29.00
30713;PMS7003;17465;47.934;33.430;2024-01-11T08:25:51;55.25;48.25;29.50
30713;PMS7003;17465;47.934;33.430;2024-01-11T08:28:22;45.50;43.50;22.50
30713;PMS7003;17465;47.934;33.430;2024-01-11T08:30:52;65.75;48.50;25.75
30713;PMS7003;17465;47.934;33.430;2024-01-11T08:35:55;60.00;49.25;29.00
30713;PMS7003;17465;47.934;33.430;2024-01-11T08:38:25;50.25;42.50;21.50
30713;PMS7003;17465;47.934;33.430;2024-01-11T08:40:56;48.75;45.50;22.50
30713;PMS7003;17465;47.934;33.430;2024-01-11T08:43:27;51.50;44.00;25.00
30713;PMS7003;17465;47.934;33.430;2024-01-11T08:46:00;58.75;47.00;27.75
30713;PMS7003;17465;47.934;33.430;2024-01-11T08:48:30;50.75;43.25;24.00
30713;PMS7003;17465;47.934;33.430;2024-01-11T08:51:01;67.50;52.50;32.00
30713;PMS7003;17465;47.934;33.430;2024-01-11T08:53:31;59.75;48.00;29.25
30713;PMS7003;17465;47.934;33.430;2024-01-11T08:56:02;48.25;40.00;20.25
30713;PMS7003;17465;47.934;33.430;2024-01-11T08:58:33;45.50;42.25;16.25
30713;PMS7003;17465;47.934;33.430;2024-01-11T09:01:03;46.75;35.75;14.00
30713;PMS7003;17465;47.934;33.430;2024-01-11T09:03:35;52.75;47.75;20.00
30713;PMS7003;17465;47.934;33.430;2024-01-11T09:06:05;62.25;51.25;21.25
30713;PMS7003;17465;47.934;33.430;2024-01-11T09:08:36;56.00;45.50;20.00
30713;PMS7003;17465;47.934;33.430;2024-01-11T09:11:07;60.75;49.00;28.00
30713;PMS7003;17465;47.934;33.430;2024-01-11T09:13:39;43.75;43.00;23.50
30713;PMS7003;17465;47.934;33.430;2024-01-11T09:16:09;49.75;44.00;23.00
30713;PMS7003;17465;47.934;33.430;2024-01-11T09:18:41;67.75;54.75;29.25
30713;PMS7003;17465;47.934;33.430;2024-01-11T09:21:16;53.75;47.75;24.25
30713;PMS7003;17465;47.934;33.430;2024-01-11T09:23:47;32.75;29.25;16.25
30713;PMS7003;17465;47.934;33.430;2024-01-11T09:26:20;56.25;47.00;28.25
30713;PMS7003;17465;47.934;33.430;2024-01-11T09:28:50;85.50;69.25;48.50
30713;PMS7003;17465;47.934;33.430;2024-01-11T09:31:20;94.25;75.50;57.25
30713;PMS7003;17465;47.934;33.430;2024-01-11T09:33:51;71.75;59.25;42.00
30713;PMS7003;17465;47.934;33.430;2024-01-11T09:36:21;76.00;63.50;43.25
30713;PMS7003;17465;47.934;33.430;2024-01-11T09:38:52;56.50;49.50;28.75
30713;PMS7003;17465;47.934;33.430;2024-01-11T09:41:22;63.75;50.75;32.00
30713;PMS7003;17465;47.934;33.430;2024-01-11T09:43:54;64.50;54.25;33.75
30713;PMS7003;17465;47.934;33.430;2024-01-11T09:46:28;73.25;60.00;41.00
30713;PMS7003;17465;47.934;33.430;2024-01-11T09:48:59;69.25;58.50;40.50
30713;PMS7003;17465;47.934;33.430;2024-01-11T09:51:33;58.25;49.75;32.50
30713;PMS7003;17465;47.934;33.430;2024-01-11T09:54:15;51.75;46.25;26.75
30713;PMS7003;17465;47.934;33.430;2024-01-11T09:56:49;56.25;46.25;30.00
30713;PMS7003;17465;47.934;33.430;2024-01-11T09:59:49;57.25;42.50;23.75
30713;PMS7003;17465;47.934;33.430;2024-01-11T10:02:23;65.00;51.00;31.25
30713;PMS7003;17465;47.934;33.430;2024-01-11T10:04:54;62.75;50.75;31.00
30713;PMS7003;17465;47.934;33.430;2024-01-11T10:07:27;55.75;48.50;28.00
30713;PMS7003;17465;47.934;33.430;2024-01-11T10:10:06;48.00;39.00;18.50
30713;PMS7003;17465;47.934;33.430;2024-01-11T10:12:36;38.50;31.50;10.50
30713;PMS7003;17465;47.934;33.430;2024-01-11T10:15:07;40.00;33.25;14.00
30713;PMS7003;17465;47.934;33.430;2024-01-11T10:20:19;44.00;35.50;14.25
30713;PMS7003;17465;47.934;33.430;2024-01-11T10:23:12;39.75;29.25;12.75
30713;PMS7003;17465;47.934;33.430;2024-01-11T10:25:45;28.75;28.50;12.50
30713;PMS7003;17465;47.934;33.430;2024-01-11T10:28:12;41.00;35.75;23.25
30713;PMS7003;17465;47.934;33.430;2024-01-11T10:30:45;40.25;31.25;11.50
30713;PMS7003;17465;47.934;33.430;2024-01-11T10:33:20;39.75;33.75;12.50
30713;PMS7003;17465;47.934;33.430;2024-01-11T10:35:51;32.00;27.50;11.25
30713;PMS7003;17465;47.934;33.430;2024-01-11T10:38:21;36.50;35.50;19.25
30713;PMS7003;17465;47.934;33.430;2024-01-11T10:41:04;30.00;28.00;14.00
30713;PMS7003;17465;47.934;33.430;2024-01-11T10:43:36;33.00;27.00;12.50
30713;PMS7003;17465;47.934;33.430;2024-01-11T10:46:09;37.00;33.50;16.00
30713;PMS7003;17465;47.934;33.430;2024-01-11T10:48:43;31.25;25.00;8.25
30713;PMS7003;17465;47.934;33.430;2024-01-11T10:51:18;23.00;23.00;11.50
30713;PMS7003;17465;47.934;33.430;2024-01-11T10:54:04;33.75;29.00;16.50
30713;PMS7003;17465;47.934;33.430;2024-01-11T10:56:34;46.25;42.25;22.25
30713;PMS7003;17465;47.934;33.430;2024-01-11T10:59:08;72.60;58.60;41.40
30713;PMS7003;17465;47.934;33.430;2024-01-11T11:01:43;68.50;57.25;42.00
30713;PMS7003;17465;47.934;33.430;2024-01-11T11:04:15;104.00;95.25;86.75
30713;PMS7003;17465;47.934;33.430;2024-01-11T11:07:02;107.00;97.60;91.60
30713;PMS7003;17465;47.934;33.430;2024-01-11T11:09:34;122.20;120.40;116.00
30713;PMS7003;17465;47.934;33.430;2024-01-11T11:12:32;124.00;121.25;114.25
30713;PMS7003;17465;47.934;33.430;2024-01-11T11:15:07;132.20;131.60;125.20
30713;PMS7003;17465;47.934;33.430;2024-01-11T11:17:40;138.80;136.60;128.20
30713;PMS7003;17465;47.934;33.430;2024-01-11T11:20:29;107.50;101.75;92.50
30713;PMS7003;17465;47.934;33.430;2024-01-11T11:23:04;118.00;115.00;105.80
30713;PMS7003;17465;47.934;33.430;2024-01-11T11:25:36;116.25;115.00;108.00
30713;PMS7003;17465;47.934;33.430;2024-01-11T11:28:08;125.25;121.75;107.00
30713;PMS7003;17465;47.934;33.430;2024-01-11T11:30:44;127.80;122.40;112.00
30713;PMS7003;17465;47.934;33.430;2024-01-11T11:33:18;125.20;120.80;106.80
30713;PMS7003;17465;47.934;33.430;2024-01-11T11:35:56;136.60;133.60;127.40
30713;PMS7003;17465;47.934;33.430;2024-01-11T11:38:28;114.80;107.40;100.00
30713;PMS7003;17465;47.934;33.430;2024-01-11T11:41:00;122.60;120.80;112.20
30713;PMS7003;17465;47.934;33.430;2024-01-11T11:43:31;169.40;166.00;156.40
30713;PMS7003;17465;47.934;33.430;2024-01-11T11:46:01;77.00;64.75;50.00
30713;PMS7003;17465;47.934;33.430;2024-01-11T11:51:26;57.20;49.40;36.80
30713;PMS7003;17465;47.934;33.430;2024-01-11T11:53:58;73.40;61.80;47.40
30713;PMS7003;17465;47.934;33.430;2024-01-11T11:56:29;92.40;83.60;70.80
30713;PMS7003;17465;47.934;33.430;2024-01-11T11:59:02;72.50;61.25;46.75
30713;PMS7003;17465;47.934;33.430;2024-01-11T12:01:33;138.25;133.50;115.00
30713;PMS7003;17465;47.934;33.430;2024-01-11T12:04:07;97.00;82.75;75.75
30713;PMS7003;17465;47.934;33.430;2024-01-11T12:06:47;81.25;65.75;52.25
30713;PMS7003;17465;47.934;33.430;2024-01-11T12:09:25;80.75;65.00;47.75
30713;PMS7003;17465;47.934;33.430;2024-01-11T12:11:56;100.50;87.25;79.00
30713;PMS7003;17465;47.934;33.430;2024-01-11T12:14:47;101.75;86.00;78.75
30713;PMS7003;17465;47.934;33.430;2024-01-11T12:17:19;85.75;69.00;56.00
30713;PMS7003;17465;47.934;33.430;2024-01-11T12:19:51;68.50;58.75;47.25
30713;PMS7003;17465;47.934;33.430;2024-01-11T12:22:23;63.75;54.25;45.75
30713;PMS7003;17465;47.934;33.430;2024-01-11T12:25:01;98.20;89.00;73.40
30713;PMS7003;17465;47.934;33.430;2024-01-11T12:27:27;95.00;81.75;79.00
30713;PMS7003;17465;47.934;33.430;2024-01-11T12:30:00;123.20;117.00;106.60
30713;PMS7003;17465;47.934;33.430;2024-01-11T12:32:31;94.75;77.75;70.00
30713;PMS7003;17465;47.934;33.430;2024-01-11T12:35:03;111.40;104.80;98.80
30713;PMS7003;17465;47.934;33.430;2024-01-11T12:37:34;115.80;111.40;103.20
30713;PMS7003;17465;47.934;33.430;2024-01-11T12:40:04;89.25;75.00;72.50
30713;PMS7003;17465;47.934;33.430;2024-01-11T12:42:35;72.00;61.00;53.50
30713;PMS7003;17465;47.934;33.430;2024-01-11T12:45:31;100.75;87.00;84.25
30713;PMS7003;17465;47.934;33.430;2024-01-11T12:48:02;95.25;80.00;80.00
30713;PMS7003;17465;47.934;33.430;2024-01-11T12:50:57;86.00;69.75;55.75
30713;PMS7003;17465;47.934;33.430;2024-01-11T12:53:30;95.25;79.00;71.00
30713;PMS7003;17465;47.934;33.430;2024-01-11T12:56:08;81.50;64.75;49.50
30713;PMS7003;17465;47.934;33.430;2024-01-11T12:58:36;89.25;72.50;65.00
30713;PMS7003;17465;47.934;33.430;2024-01-11T13:01:08;91.00;75.25;64.00
30713;PMS7003;17465;47.934;33.430;2024-01-11T13:03:39;89.75;72.25;62.75
30713;PMS7003;17465;47.934;33.430;2024-01-11T13:06:12;82.00;66.75;52.75
30713;PMS7003;17465;47.934;33.430;2024-01-11T13:08:44;100.50;86.75;81.50
30713;PMS7003;17465;47.934;33.430;2024-01-11T13:11:15;78.25;63.00;47.75
30713;PMS7003;17465;47.934;33.430;2024-01-11T13:13:48;76.00;63.00;47.75
30713;PMS7003;17465;47.934;33.430;2024-01-11T13:16:18;82.75;67.50;62.75
30713;PMS7003;17465;47.934;33.430;2024-01-11T13:18:49;62.75;53.75;43.50
30713;PMS7003;17465;47.934;33.430;2024-01-11T13:21:19;88.75;73.00;63.25
30713;PMS7003;17465;47.934;33.430;2024-01-11T13:23:49;69.75;59.00;49.75
30713;PMS7003;17465;47.934;33.430;2024-01-11T13:26:34;80.75;67.50;53.00
30713;PMS7003;17465;47.934;33.430;2024-01-11T13:28:59;93.00;76.00;65.25
30713;PMS7003;17465;47.934;33.430;2024-01-11T13:31:30;82.50;67.50;52.75
30713;PMS7003;17465;47.934;33.430;2024-01-11T13:34:00;84.25;68.75;56.75
30713;PMS7003;17465;47.934;33.430;2024-01-11T13:36:31;93.50;77.75;69.00
30713;PMS7003;17465;47.934;33.430;2024-01-11T13:39:01;85.25;70.00;57.75
30713;PMS7003;17465;47.934;33.430;2024-01-11T13:41:33;135.40;133.60;124.80
30713;PMS7003;17465;47.934;33.430;2024-01-11T13:44:03;85.50;68.50;55.75
30713;PMS7003;17465;47.934;33.430;2024-01-11T13:46:34;91.00;75.25;63.25
30713;PMS7003;17465;47.934;33.430;2024-01-11T13:49:07;95.50;79.75;68.75
30713;PMS7003;17465;47.934;33.430;2024-01-11T13:51:38;82.50;66.75;51.25
30713;PMS7003;17465;47.934;33.430;2024-01-11T13:54:10;75.75;62.75;48.00
30713;PMS7003;17465;47.934;33.430;2024-01-11T13:56:42;93.50;78.75;69.50
30713;PMS7003;17465;47.934;33.430;2024-01-11T13:59:18;104.75;95.75;86.00
30713;PMS7003;17465;47.934;33.430;2024-01-11T14:01:49;90.25;74.00;60.50
30713;PMS7003;17465;47.934;33.430;2024-01-11T14:04:23;97.75;83.00;70.75
30713;PMS7003;17465;47.934;33.430;2024-01-11T14:06:56;68.00;57.25;44.25
30713;PMS7003;17465;47.934;33.430;2024-01-11T14:09:28;68.75;59.25;46.75
30713;PMS7003;17465;47.934;33.430;2024-01-11T14:11:59;46.00;37.75;21.75
30713;PMS7003;17465;47.934;33.430;2024-01-11T14:14:31;38.25;35.00;20.75
30713;PMS7003;17465;47.934;33.430;2024-01-11T14:17:05;39.50;34.75;23.00